Time;durP1;ratioP1;P1;durP2;ratioP2;P2;SDS_P1;SDS_P2;PMS_P1;PMS_P2;Temp;Humidity;BMP_temperature;BMP_pressure;BME280_temperature;BME280_humidity;BME280_pressure;Samples;Min_cycle;Max_cycle;Signal;HPM_P1;HPM_P2
2023/05/01 00:01:04;;;;;;;8.18;4.38;;;;;;;7.24;69.46;100147.22;5090988;28;20035;-88
2023/05/01 00:03:29;;;;;;;6.90;4.50;;;;;;;7.31;68.84;100145.34;5090594;28;20458;-87
2023/05/01 00:06:04;;;;;;;7.13;4.32;;;;;;;7.33;68.84;100138.38;5074061;28;20122;-87
2023/05/01 00:08:30;;;;;;;8.40;4.68;;;;;;;7.39;68.21;100148.59;5057767;28;20040;-87
2023/05/01 00:10:56;;;;;;;5.97;4.13;;;;;;;7.46;67.66;100139.78;5053862;28;20025;-87
2023/05/01 00:13:23;;;;;;;6.28;4.28;;;;;;;7.44;67.11;100129.44;5053470;28;20051;-87
2023/05/01 00:15:49;;;;;;;9.80;4.82;;;;;;;7.50;66.48;100134.47;5053777;28;20039;-87
2023/05/01 00:18:15;;;;;;;8.90;4.70;;;;;;;7.51;66.07;100132.72;5053737;28;20036;-86
2023/05/01 00:20:40;;;;;;;8.90;4.47;;;;;;;7.57;66.56;100136.91;5053625;28;20029;-88
2023/05/01 00:23:07;;;;;;;7.88;5.05;;;;;;;7.59;66.25;100141.16;5053731;28;20028;-87
2023/05/01 00:25:33;;;;;;;9.77;5.43;;;;;;;7.61;65.63;100133.34;5051078;28;20132;-87
2023/05/01 00:27:58;;;;;;;10.52;4.93;;;;;;;7.64;65.87;100134.09;5051436;28;20510;-87
2023/05/01 00:30:24;;;;;;;8.98;4.95;;;;;;;7.58;66.71;100118.69;5051429;28;20025;-88
2023/05/01 00:32:49;;;;;;;6.78;5.03;;;;;;;7.60;67.04;100129.88;5051580;28;20400;-87
2023/05/01 00:35:15;;;;;;;11.55;5.90;;;;;;;7.60;66.52;100131.63;5051532;28;20155;-87
2023/05/01 00:37:41;;;;;;;10.43;7.53;;;;;;;7.35;65.56;100096.00;5051122;28;20044;-87
2023/05/01 00:40:07;;;;;;;18.63;10.00;;;;;;;7.47;65.27;100111.22;5051321;28;20017;-88
2023/05/01 00:42:38;;;;;;;22.80;15.95;;;;;;;7.50;65.27;100126.69;5050765;28;20029;-87
2023/05/01 00:45:07;;;;;;;20.37;15.27;;;;;;;7.42;65.18;100115.69;5050512;28;20120;-88
2023/05/01 00:47:35;;;;;;;11.85;7.97;;;;;;;7.23;65.92;100085.94;5050969;28;20048;-87
2023/05/01 00:50:01;;;;;;;10.55;6.85;;;;;;;7.37;65.98;100109.75;5051206;28;20076;-88
2023/05/01 00:52:26;;;;;;;9.88;6.00;;;;;;;7.39;65.97;100107.97;5050815;28;20068;-88
2023/05/01 00:54:53;;;;;;;23.13;16.35;;;;;;;7.48;66.50;100119.84;5051027;28;20064;-88
2023/05/01 00:57:19;;;;;;;58.70;32.40;;;;;;;7.50;65.71;100121.53;5050867;28;20021;-87
2023/05/01 00:59:45;;;;;;;90.65;51.70;;;;;;;7.46;65.85;100119.06;5050886;28;20508;-88
2023/05/01 01:02:11;;;;;;;31.92;19.42;;;;;;;7.51;66.31;100119.78;5050907;28;20044;-88
2023/05/01 01:04:38;;;;;;;15.65;9.38;;;;;;;7.46;66.54;100109.53;5050708;28;20111;-88
2023/05/01 01:07:20;;;;;;;11.88;7.57;;;;;;;7.25;66.61;100089.38;5050880;28;20028;-89
2023/05/01 01:09:49;;;;;;;15.18;6.40;;;;;;;7.29;65.96;100088.41;5050519;28;20028;-88
2023/05/01 01:12:25;;;;;;;11.13;5.97;;;;;;;7.36;65.46;100108.06;5050932;28;20119;-88
2023/05/01 01:15:07;;;;;;;13.77;6.00;;;;;;;7.39;65.50;100113.16;5050840;28;20028;-88
2023/05/01 01:18:11;;;;;;;11.05;5.72;;;;;;;7.10;65.86;100067.28;5050584;28;20051;-88
2023/05/01 01:20:52;;;;;;;9.82;5.25;;;;;;;7.27;66.08;100099.69;5032487;28;20128;-88
2023/05/01 01:23:44;;;;;;;18.90;13.73;;;;;;;7.08;64.74;100069.06;5032681;28;20033;-88
2023/05/01 01:26:32;;;;;;;15.85;11.35;;;;;;;7.21;65.50;100091.19;5032762;28;20043;-87
2023/05/01 01:29:28;;;;;;;15.07;7.97;;;;;;;7.21;65.15;100104.13;5049795;28;20144;-89
2023/05/01 01:32:21;;;;;;;11.70;9.18;;;;;;;7.16;65.05;100103.41;5049621;28;20481;-88
2023/05/01 01:34:53;;;;;;;12.38;8.57;;;;;;;6.92;66.66;100068.59;5032464;28;20488;-87
2023/05/01 01:37:28;;;;;;;14.45;9.07;;;;;;;6.86;68.26;100065.31;5032622;28;20032;-88
2023/05/01 01:39:56;;;;;;;18.27;9.60;;;;;;;6.92;69.35;100091.91;5049418;28;20520;-88
2023/05/01 01:42:29;;;;;;;15.02;9.57;;;;;;;6.82;70.45;100093.00;5032492;28;20029;-88
2023/05/01 01:44:58;;;;;;;14.20;8.95;;;;;;;6.69;71.22;100081.25;5032473;28;20060;-88
2023/05/01 01:47:30;;;;;;;14.52;9.57;;;;;;;6.61;71.56;100070.22;5032474;28;20029;-87
2023/05/01 01:49:58;;;;;;;13.13;7.63;;;;;;;6.63;71.25;100091.75;5032488;28;20114;-87
2023/05/01 01:52:26;;;;;;;11.93;8.15;;;;;;;6.54;71.09;100094.56;5032413;28;20543;-88
2023/05/01 01:54:57;;;;;;;13.93;8.90;;;;;;;5.76;71.18;99960.91;5033388;28;20045;-88
2023/05/01 01:57:24;;;;;;;13.88;8.80;;;;;;;6.40;71.32;100080.19;5043483;28;20540;-87
2023/05/01 01:59:50;;;;;;;16.73;8.77;;;;;;;6.37;71.81;100079.44;5053977;28;20112;-88
2023/05/01 02:02:19;;;;;;;11.98;8.38;;;;;;;6.37;71.77;100089.78;5054402;28;20032;-88
2023/05/01 02:04:46;;;;;;;11.00;8.50;;;;;;;6.27;72.31;100078.75;5054241;28;20072;-88
2023/05/01 02:07:13;;;;;;;14.95;9.45;;;;;;;6.12;72.59;100067.03;5055927;28;20473;-88
2023/05/01 02:09:41;;;;;;;11.15;8.65;;;;;;;6.24;72.35;100094.38;5055265;28;20380;-88
2023/05/01 02:12:08;;;;;;;12.07;8.30;;;;;;;6.09;72.86;100074.84;5053958;28;20055;-87
2023/05/01 02:14:36;;;;;;;12.50;7.70;;;;;;;6.09;73.75;100085.19;5054058;28;20025;-88
2023/05/01 02:17:02;;;;;;;13.38;7.90;;;;;;;5.96;74.07;100066.50;5054079;28;20369;-88
2023/05/01 02:19:31;;;;;;;11.68;8.35;;;;;;;5.98;73.98;100071.63;5053853;28;20124;-88
2023/05/01 02:21:58;;;;;;;16.42;9.07;;;;;;;5.83;74.01;100062.44;5053947;28;20494;-88
2023/05/01 02:24:26;;;;;;;15.48;8.50;;;;;;;5.84;74.12;100066.72;5053852;28;20473;-88
2023/05/01 02:26:58;;;;;;;11.18;8.00;;;;;;;5.89;74.42;100089.88;5053582;28;20053;-87
2023/05/01 02:29:24;;;;;;;12.77;7.13;;;;;;;5.80;75.05;100069.41;5053990;28;20443;-88
2023/05/01 02:31:49;;;;;;;9.32;6.80;;;;;;;5.78;74.49;100073.75;5053539;28;20029;-87
2023/05/01 02:34:15;;;;;;;10.73;7.38;;;;;;;5.79;74.60;100071.13;5053775;28;20155;-88
2023/05/01 02:36:41;;;;;;;11.88;6.78;;;;;;;5.70;74.88;100063.56;5053450;28;20028;-88
2023/05/01 02:39:07;;;;;;;12.98;7.25;;;;;;;5.65;75.45;100063.66;5053571;28;20469;-88
2023/05/01 02:41:34;;;;;;;13.88;7.40;;;;;;;5.74;75.64;100084.16;5053475;28;20531;-88
2023/05/01 02:44:03;;;;;;;9.02;6.85;;;;;;;5.57;75.71;100062.97;5053669;28;20040;-87
2023/05/01 02:46:31;;;;;;;13.25;6.88;;;;;;;5.67;75.88;100084.31;5053552;28;20120;-88
2023/05/01 02:48:58;;;;;;;13.57;8.40;;;;;;;5.59;75.95;100074.09;5053662;28;20021;-87
2023/05/01 02:51:25;;;;;;;14.80;8.43;;;;;;;5.54;76.27;100068.19;5053556;28;20028;-88
2023/05/01 02:53:50;;;;;;;13.27;7.75;;;;;;;5.51;76.13;100070.81;5052967;28;20388;-87
2023/05/01 02:56:16;;;;;;;11.52;7.53;;;;;;;5.53;76.53;100074.25;5053443;28;20017;-88
2023/05/01 02:58:41;;;;;;;14.25;8.40;;;;;;;5.50;76.51;100066.53;5052967;28;20437;-88
2023/05/01 03:01:07;;;;;;;12.77;8.32;;;;;;;5.35;76.42;100038.41;5053263;28;20025;-87
2023/05/01 03:03:32;;;;;;;13.38;8.77;;;;;;;5.28;76.55;100036.84;5052981;28;20119;-87
2023/05/01 03:05:58;;;;;;;13.02;8.05;;;;;;;5.40;76.09;100062.44;5052989;28;20017;-88
2023/05/01 03:08:24;;;;;;;18.13;8.82;;;;;;;5.48;76.11;100069.16;5052373;28;20032;-87
2023/05/01 03:10:49;;;;;;;15.20;8.43;;;;;;;5.36;75.64;100066.81;5052968;28;20040;-88
2023/05/01 03:13:15;;;;;;;14.40;8.23;;;;;;;5.22;75.97;100048.13;5052840;28;20037;-88
2023/05/01 03:15:41;;;;;;;12.98;8.10;;;;;;;5.21;76.02;100047.28;5052750;28;20112;-88
2023/05/01 03:18:07;;;;;;;13.13;8.70;;;;;;;5.31;76.64;100063.47;5052963;28;20121;-88
2023/05/01 03:20:32;;;;;;;13.25;7.85;;;;;;;5.27;76.10;100064.41;5052654;28;20052;-88
2023/05/01 03:22:58;;;;;;;11.77;7.93;;;;;;;5.21;76.28;100059.34;5052742;28;20075;-87
2023/05/01 03:25:23;;;;;;;16.38;7.47;;;;;;;5.23;76.13;100061.03;5052924;28;20465;-88
2023/05/01 03:27:48;;;;;;;12.45;7.22;;;;;;;5.22;76.36;100056.75;5053768;28;20111;-88
2023/05/01 03:30:14;;;;;;;13.15;6.82;;;;;;;5.23;76.43;100065.34;5052759;28;20029;-88
2023/05/01 03:32:40;;;;;;;14.85;8.57;;;;;;;5.22;76.11;100061.91;5052368;28;20032;-88
2023/05/01 03:35:06;;;;;;;14.88;9.75;;;;;;;5.21;76.16;100051.59;5052600;28;20025;-88
2023/05/01 03:37:32;;;;;;;12.45;8.48;;;;;;;5.21;76.02;100060.19;5052259;28;20028;-87
2023/05/01 03:39:58;;;;;;;15.48;8.10;;;;;;;5.16;75.74;100050.81;5052647;28;20062;-87
2023/05/01 03:42:23;;;;;;;15.18;8.27;;;;;;;5.21;75.83;100057.59;5053719;28;20028;-88
2023/05/01 03:44:49;;;;;;;12.50;8.18;;;;;;;5.20;75.85;100058.47;5052266;28;20031;-87
2023/05/01 03:47:15;;;;;;;11.57;7.45;;;;;;;5.22;76.24;100061.91;5052435;28;20039;-87
2023/05/01 03:49:42;;;;;;;14.07;7.57;;;;;;;5.22;76.07;100061.91;5052045;28;20021;-87
2023/05/01 03:52:08;;;;;;;11.82;6.90;;;;;;;5.18;75.75;100043.88;5053396;28;20052;-88
2023/05/01 03:54:33;;;;;;;9.07;6.65;;;;;;;5.21;75.94;100046.41;5052100;28;20068;-88
2023/05/01 03:56:59;;;;;;;15.88;7.38;;;;;;;5.23;76.27;100047.25;5052291;28;20025;-87
2023/05/01 03:59:25;;;;;;;12.90;6.95;;;;;;;5.43;76.78;100041.69;5052237;28;20037;-88
2023/05/01 04:01:51;;;;;;;10.65;7.15;;;;;;;6.08;75.15;100036.09;5051829;28;20433;-88
2023/05/01 04:04:17;;;;;;;12.40;7.68;;;;;;;6.96;72.38;100044.34;5052018;28;20063;-88
2023/05/01 04:06:42;;;;;;;11.15;7.18;;;;;;;7.78;70.25;100045.56;5051712;28;20029;-88
2023/05/01 04:09:08;;;;;;;12.25;7.50;;;;;;;8.10;69.11;100030.81;5052161;28;20464;-88
2023/05/01 04:11:33;;;;;;;12.10;7.43;;;;;;;8.29;69.37;100031.06;5051981;28;20037;-89
2023/05/01 04:13:58;;;;;;;12.15;7.13;;;;;;;8.44;68.08;100025.44;5051661;28;20461;-88
2023/05/01 04:16:24;;;;;;;17.02;8.35;;;;;;;8.71;67.18;100032.31;5051775;28;20029;-88
2023/05/01 04:18:49;;;;;;;11.23;7.90;;;;;;;8.90;67.48;100035.19;5050464;28;20108;-86
2023/05/01 04:21:17;;;;;;;12.55;7.63;;;;;;;9.14;66.48;100030.03;5051521;28;20125;-86
2023/05/01 04:23:42;;;;;;;13.52;8.25;;;;;;;9.46;65.70;100016.75;5051569;28;20090;-86
2023/05/01 04:26:08;;;;;;;13.82;7.57;;;;;;;10.48;63.27;100025.03;5051748;28;20048;-86
2023/05/01 04:28:33;;;;;;;13.57;8.30;;;;;;;11.47;60.73;100037.38;5051508;28;20055;-86
2023/05/01 04:30:58;;;;;;;13.10;7.80;;;;;;;11.86;58.14;100011.28;5051298;28;20024;-86
2023/05/01 04:33:24;;;;;;;14.55;8.15;;;;;;;11.91;57.94;100022.34;5051397;28;20025;-86
2023/05/01 04:35:50;;;;;;;14.65;8.00;;;;;;;11.69;58.05;100003.34;5051014;28;20033;-86
2023/05/01 04:38:15;;;;;;;15.13;8.45;;;;;;;11.58;57.29;100005.59;5051553;28;20111;-86
2023/05/01 04:40:40;;;;;;;12.68;8.00;;;;;;;11.82;56.97;100027.97;5051235;28;20025;-86
2023/05/01 04:43:21;;;;;;;20.20;13.43;;;;;;;11.97;56.30;100011.66;5051149;28;20029;-88
2023/05/01 04:45:46;;;;;;;21.35;16.60;;;;;;;12.67;54.64;100027.47;5050796;28;20116;-86
2023/05/01 04:48:12;;;;;;;18.80;15.15;;;;;;;13.34;51.78;100008.38;5051166;28;20120;-87
2023/05/01 04:50:37;;;;;;;20.60;16.15;;;;;;;14.68;50.08;100031.59;5050798;28;20029;-87
2023/05/01 04:53:02;;;;;;;24.88;17.20;;;;;;;15.14;48.67;100033.34;5051240;28;20082;-87
2023/05/01 04:55:28;;;;;;;20.00;14.30;;;;;;;15.04;48.32;100022.53;5051185;28;20028;-87
2023/05/01 04:57:53;;;;;;;33.53;24.30;;;;;;;14.73;48.60;100026.09;5050799;28;20025;-87
2023/05/01 05:00:19;;;;;;;61.85;39.95;;;;;;;14.46;49.66;100031.97;5052215;28;20025;-87
2023/05/01 05:02:45;;;;;;;18.25;12.07;;;;;;;14.33;49.31;100012.63;5051886;28;20029;-87
2023/05/01 05:05:10;;;;;;;14.93;9.55;;;;;;;14.43;49.02;100026.03;5052142;28;20021;-86
2023/05/01 05:07:36;;;;;;;9.95;7.63;;;;;;;14.57;48.59;100034.00;5052349;28;20036;-86
2023/05/01 05:10:01;;;;;;;16.67;10.68;;;;;;;15.44;46.81;100023.63;5051921;28;20053;-86
2023/05/01 05:12:27;;;;;;;56.80;40.40;;;;;;;16.50;45.33;100031.91;5052140;28;20059;-87
2023/05/01 05:14:55;;;;;;;56.33;40.72;;;;;;;16.71;44.74;100010.31;5050661;28;20031;-87
2023/05/01 05:17:20;;;;;;;28.27;19.92;;;;;;;16.19;45.05;99955.06;5052054;28;20116;-86
2023/05/01 05:19:45;;;;;;;17.38;12.90;;;;;;;16.60;45.47;100022.47;5051978;28;20459;-87
2023/05/01 05:22:11;;;;;;;13.32;9.57;;;;;;;16.42;45.47;100012.22;5052212;28;20027;-87
2023/05/01 05:24:37;;;;;;;14.00;9.65;;;;;;;16.31;45.59;100027.84;5052036;28;20469;-87
2023/05/01 05:27:02;;;;;;;14.50;10.60;;;;;;;16.73;45.48;100020.78;5050319;28;20052;-86
2023/05/01 05:29:28;;;;;;;12.27;8.60;;;;;;;17.54;43.91;100024.94;5051541;28;20032;-87
2023/05/01 05:31:53;;;;;;;14.20;10.40;;;;;;;17.53;43.18;100023.25;5051625;28;20033;-87
2023/05/01 05:34:19;;;;;;;17.85;13.57;;;;;;;18.07;42.31;100017.69;5050505;28;20028;-87
2023/05/01 05:36:44;;;;;;;14.93;9.63;;;;;;;18.18;42.16;99973.78;5051432;28;20047;-87
2023/05/01 05:39:11;;;;;;;12.30;9.20;;;;;;;16.71;43.56;99986.63;5051807;28;20033;-90
2023/05/01 05:41:37;;;;;;;14.32;9.75;;;;;;;16.71;44.67;100020.00;5051718;28;20678;-87
2023/05/01 05:44:02;;;;;;;14.65;8.68;;;;;;;16.61;45.00;99971.59;5050132;28;20029;-83
2023/05/01 05:46:27;;;;;;;15.23;10.45;;;;;;;17.52;44.13;100025.03;5051259;28;20029;-84
2023/05/01 05:48:53;;;;;;;19.83;13.85;;;;;;;18.50;43.08;99996.09;5051493;28;20017;-86
2023/05/01 05:51:18;;;;;;;15.48;11.30;;;;;;;19.66;41.49;100019.81;5050452;28;20027;-85
2023/05/01 05:53:44;;;;;;;12.55;9.70;;;;;;;20.41;40.29;100018.25;5051376;28;20040;-84
2023/05/01 05:56:09;;;;;;;13.65;9.38;;;;;;;20.44;40.14;100002.13;5051599;28;20469;-84
2023/05/01 05:58:35;;;;;;;14.85;10.25;;;;;;;19.54;41.07;100020.75;5050160;28;20029;-84
2023/05/01 06:01:00;;;;;;;16.95;10.30;;;;;;;18.49;41.50;99981.25;5051227;28;20436;-84
2023/05/01 06:03:26;;;;;;;13.35;9.80;;;;;;;18.48;42.11;99980.41;5051503;28;20029;-84
2023/05/01 06:05:51;;;;;;;14.40;9.88;;;;;;;19.23;42.21;100013.53;5051201;28;20083;-85
2023/05/01 06:08:17;;;;;;;15.15;10.35;;;;;;;19.73;41.29;99980.53;5049509;28;20025;-84
2023/05/01 06:10:43;;;;;;;14.88;10.27;;;;;;;20.31;40.36;99982.91;5049655;28;20025;-84
2023/05/01 06:13:09;;;;;;;13.68;9.48;;;;;;;19.66;41.01;99995.19;5051182;28;20369;-84
2023/05/01 06:15:37;;;;;;;14.73;9.45;;;;;;;18.97;42.27;100016.34;5051254;28;20055;-84
2023/05/01 06:18:03;;;;;;;14.40;8.95;;;;;;;19.47;41.66;100008.13;5049356;28;20507;-84
2023/05/01 06:20:28;;;;;;;14.05;9.70;;;;;;;20.08;41.09;99977.69;5051012;28;20025;-84
2023/05/01 06:22:54;;;;;;;10.50;7.72;;;;;;;20.43;39.43;100005.72;5050960;28;20036;-84
2023/05/01 06:25:20;;;;;;;10.85;8.18;;;;;;;21.95;38.29;100001.63;5051090;28;20024;-84
2023/05/01 06:27:45;;;;;;;12.98;8.15;;;;;;;22.62;37.08;100003.56;5050950;28;20053;-84
2023/05/01 06:30:11;;;;;;;12.38;7.82;;;;;;;21.77;37.99;99971.44;5051033;28;20108;-83
2023/05/01 06:32:36;;;;;;;11.90;8.00;;;;;;;22.00;37.31;99967.59;5050644;28;20425;-84
2023/05/01 06:35:02;;;;;;;10.75;7.28;;;;;;;24.29;35.17;99984.25;5049542;28;20469;-84
2023/05/01 06:37:27;;;;;;;11.35;6.97;;;;;;;26.21;33.29;99989.47;5051182;28;20051;-84
2023/05/01 06:39:52;;;;;;;12.38;8.38;;;;;;;25.24;33.07;99969.38;5044715;28;20025;-85
2023/05/01 06:42:20;;;;;;;9.25;7.18;;;;;;;24.95;33.53;99988.34;5033762;28;20049;-84
2023/05/01 06:44:45;;;;;;;10.38;7.70;;;;;;;23.52;34.44;99999.66;5047948;28;20499;-85
2023/05/01 06:47:10;;;;;;;15.43;11.88;;;;;;;24.23;34.52;99991.03;5054696;28;20040;-84
2023/05/01 06:49:36;;;;;;;13.55;7.65;;;;;;;25.55;33.51;99997.22;5053637;28;20694;-85
2023/05/01 06:52:01;;;;;;;13.88;9.75;;;;;;;26.77;32.13;99971.84;5054567;28;20095;-85
2023/05/01 06:54:26;;;;;;;7.75;6.90;;;;;;;28.53;31.22;99978.72;5053805;28;20029;-85
2023/05/01 06:56:52;;;;;;;12.07;7.95;;;;;;;30.64;29.69;99977.22;5054332;28;20031;-85
2023/05/01 06:59:18;;;;;;;10.45;7.50;;;;;;;30.37;29.40;99969.91;5054252;28;20028;-85
2023/05/01 07:01:43;;;;;;;10.93;7.75;;;;;;;31.95;27.92;99986.34;5053967;28;20074;-85
2023/05/01 07:04:09;;;;;;;10.48;7.63;;;;;;;31.20;27.97;99968.34;5053130;28;20033;-85
2023/05/01 07:06:35;;;;;;;10.95;8.07;;;;;;;32.60;26.93;99956.22;5053942;28;20041;-85
2023/05/01 07:09:00;;;;;;;11.57;8.63;;;;;;;31.27;28.00;99963.84;5053865;28;20029;-86
2023/05/01 07:11:26;;;;;;;11.82;8.70;;;;;;;31.44;28.43;99980.53;5054313;28;20028;-85
2023/05/01 07:13:52;;;;;;;10.52;8.55;;;;;;;31.74;27.81;99967.59;5053900;28;20017;-85
2023/05/01 07:16:18;;;;;;;12.27;8.15;;;;;;;32.61;27.63;99958.69;5053944;28;20362;-85
2023/05/01 07:18:43;;;;;;;10.90;8.82;;;;;;;33.63;27.23;99961.91;5054068;28;20032;-85
2023/05/01 07:21:11;;;;;;;11.45;8.15;;;;;;;34.18;26.40;99946.03;5053816;28;20579;-85
2023/05/01 07:23:37;;;;;;;8.05;7.22;;;;;;;35.45;25.35;99963.63;5053879;28;20357;-85
2023/05/01 07:26:03;;;;;;;9.25;7.35;;;;;;;37.06;24.49;99957.56;5052226;28;20033;-85
2023/05/01 07:28:28;;;;;;;8.35;6.35;;;;;;;38.13;23.75;99937.97;5053597;28;20052;-85
2023/05/01 07:30:54;;;;;;;8.75;7.53;;;;;;;38.78;23.58;99964.69;5053340;28;20025;-86
2023/05/01 07:33:19;;;;;;;9.15;7.88;;;;;;;38.81;23.79;99947.00;5053911;28;20053;-84
2023/05/01 07:35:45;;;;;;;9.15;7.63;;;;;;;36.08;24.30;99951.59;5054005;28;20036;-86
2023/05/01 07:38:10;;;;;;;7.65;6.63;;;;;;;35.78;24.69;99964.28;5053710;28;20025;-86
2023/05/01 07:40:37;;;;;;;11.02;8.10;;;;;;;34.31;25.02;99951.34;5052523;28;20048;-86
2023/05/01 07:43:03;;;;;;;9.52;7.30;;;;;;;34.53;25.26;99957.22;5052014;28;20380;-85
2023/05/01 07:45:28;;;;;;;11.45;7.18;;;;;;;32.63;26.94;99945.84;5052136;28;20017;-85
2023/05/01 07:47:53;;;;;;;9.80;7.35;;;;;;;34.72;26.09;99941.88;5053507;28;20112;-85
2023/05/01 07:50:19;;;;;;;10.32;7.47;;;;;;;36.04;24.86;99955.00;5052399;28;20028;-86
2023/05/01 07:52:45;;;;;;;9.60;6.90;;;;;;;38.13;24.09;99946.13;5052134;28;20395;-86
2023/05/01 07:55:10;;;;;;;8.65;7.78;;;;;;;38.20;24.08;99915.00;5053272;28;20112;-86
2023/05/01 07:57:36;;;;;;;7.60;6.47;;;;;;;38.34;23.83;99948.16;5053459;28;20025;-86
2023/05/01 08:00:01;;;;;;;6.95;6.00;;;;;;;39.07;23.32;99919.09;5053110;28;20385;-85
2023/05/01 08:02:26;;;;;;;9.82;7.07;;;;;;;36.99;24.01;99941.38;5053214;28;20040;-86
2023/05/01 08:04:52;;;;;;;10.73;6.03;;;;;;;34.75;24.90;99926.00;5052033;28;20370;-86
2023/05/01 08:07:17;;;;;;;8.65;6.55;;;;;;;36.59;24.46;99941.25;5052074;28;20088;-86
2023/05/01 08:09:42;;;;;;;8.55;7.00;;;;;;;37.07;24.04;99932.03;5052887;28;20036;-85
2023/05/01 08:12:08;;;;;;;8.73;6.72;;;;;;;38.16;23.27;99940.22;5052870;28;20024;-85
2023/05/01 08:14:33;;;;;;;8.60;6.63;;;;;;;37.94;23.77;99931.94;5051734;28;20036;-86
2023/05/01 08:16:59;;;;;;;10.18;7.22;;;;;;;37.64;23.54;99933.00;5052851;28;20429;-86
2023/05/01 08:19:26;;;;;;;8.27;6.60;;;;;;;36.90;23.91;99934.63;5051846;28;20044;-86
2023/05/01 08:21:52;;;;;;;9.27;6.90;;;;;;;34.62;24.58;99933.44;5051433;28;20089;-86
2023/05/01 08:24:17;;;;;;;9.55;6.60;;;;;;;31.98;26.45;99888.13;5052933;28;20476;-86
2023/05/01 08:26:43;;;;;;;11.15;7.25;;;;;;;31.34;27.20;99924.34;5050982;28;20049;-85
2023/05/01 08:29:09;;;;;;;12.38;9.02;;;;;;;28.37;29.27;99885.09;5052373;28;20044;-85
2023/05/01 08:31:36;;;;;;;10.52;7.45;;;;;;;25.91;32.10;99910.84;5051631;28;20025;-85
2023/05/01 08:34:02;;;;;;;10.23;7.18;;;;;;;24.28;32.91;99916.06;5051267;28;20021;-85
2023/05/01 08:36:27;;;;;;;12.88;7.20;;;;;;;22.51;34.46;99928.56;5051407;28;20036;-84
2023/05/01 08:38:53;;;;;;;9.23;6.00;;;;;;;21.07;36.67;99907.72;5051074;28;20503;-84
2023/05/01 08:41:20;;;;;;;10.00;6.28;;;;;;;21.05;36.98;99911.44;5050962;28;20635;-84
2023/05/01 08:43:47;;;;;;;11.73;6.43;;;;;;;20.95;37.46;99889.41;5052559;28;20115;-84
2023/05/01 08:46:20;;;;;;;10.52;7.20;;;;;;;20.86;37.23;99907.75;5052485;28;20055;-87
2023/05/01 08:48:47;;;;;;;9.63;5.90;;;;;;;20.66;38.21;99927.13;5051223;28;20028;-85
2023/05/01 08:51:15;;;;;;;8.55;7.22;;;;;;;20.00;38.16;99919.31;5051011;28;20488;-86
2023/05/01 08:53:42;;;;;;;10.02;6.47;;;;;;;19.63;38.98;99917.00;5052254;28;20028;-87
2023/05/01 08:56:10;;;;;;;11.38;6.63;;;;;;;19.22;39.71;99914.16;5051991;28;20051;-86
2023/05/01 08:58:35;;;;;;;10.75;6.63;;;;;;;18.78;39.55;99902.56;5052488;28;20039;-86
2023/05/01 09:01:02;;;;;;;11.15;6.07;;;;;;;18.81;40.54;99908.47;5050939;28;20024;-85
2023/05/01 09:03:30;;;;;;;10.43;6.60;;;;;;;18.80;39.09;99895.41;5051053;28;20031;-85
2023/05/01 09:05:56;;;;;;;10.20;6.45;;;;;;;18.61;39.68;99882.72;5050161;28;20033;-84
2023/05/01 09:08:21;;;;;;;11.85;6.63;;;;;;;18.56;40.68;99900.69;5050889;28;20032;-84
2023/05/01 09:10:48;;;;;;;9.88;6.35;;;;;;;18.73;40.39;99907.38;5049532;28;20072;-84
2023/05/01 09:13:18;;;;;;;8.27;6.50;;;;;;;18.94;40.17;99900.44;5032488;28;20098;-85
2023/05/01 09:15:44;;;;;;;9.32;5.95;;;;;;;18.82;40.47;99885.53;5032675;28;20508;-85
2023/05/01 09:18:10;;;;;;;11.50;7.45;;;;;;;18.33;40.37;99855.81;5032322;28;20055;-85
2023/05/01 09:20:36;;;;;;;11.60;7.10;;;;;;;18.69;40.43;99889.13;5032799;28;20076;-85
2023/05/01 09:23:02;;;;;;;11.65;7.88;;;;;;;18.54;40.31;99877.09;5026583;28;20025;-85
2023/05/01 09:25:28;;;;;;;11.52;7.90;;;;;;;18.40;40.12;99883.38;5028447;28;20133;-85
2023/05/01 09:27:54;;;;;;;10.45;7.32;;;;;;;18.10;41.06;99873.34;5049006;28;20045;-85
2023/05/01 09:30:38;;;;;;;10.00;7.40;;;;;;;17.67;41.48;99847.47;5049219;28;20043;-85
2023/05/01 09:33:13;;;;;;;12.38;7.40;;;;;;;17.79;41.79;99855.50;5032190;28;20039;-85
2023/05/01 09:35:52;;;;;;;10.98;7.50;;;;;;;18.29;40.95;99883.38;5032201;28;20128;-85
2023/05/01 09:38:22;;;;;;;10.13;6.88;;;;;;;18.52;41.89;99876.34;5049200;28;20480;-86
2023/05/01 09:40:48;;;;;;;13.93;7.45;;;;;;;18.66;41.30;99862.09;5032828;28;20029;-85
2023/05/01 09:43:24;;;;;;;8.30;6.40;;;;;;;18.66;41.30;99878.75;5050281;28;20033;-85
2023/05/01 09:46:18;;;;;;;11.05;7.00;;;;;;;18.53;41.36;99874.53;5050506;28;20067;-85
2023/05/01 09:48:58;;;;;;;11.27;7.43;;;;;;;18.24;41.76;99856.47;5032583;28;20435;-85
2023/05/01 09:51:26;;;;;;;10.88;6.03;;;;;;;17.94;40.83;99872.78;5049177;28;20099;-85
2023/05/01 09:53:55;;;;;;;9.77;5.47;;;;;;;17.67;40.82;99860.66;5032372;28;20041;-85
2023/05/01 09:56:20;;;;;;;13.35;7.35;;;;;;;17.46;41.30;99865.69;5032165;28;20392;-85
2023/05/01 09:58:48;;;;;;;12.07;6.85;;;;;;;17.38;41.53;99854.84;5032369;28;20037;-85
2023/05/01 10:01:14;;;;;;;10.55;6.15;;;;;;;17.14;41.88;99804.78;5032223;28;20128;-85
2023/05/01 10:03:41;;;;;;;9.30;5.55;;;;;;;17.57;42.09;99854.38;5032346;28;20459;-84
2023/05/01 10:06:08;;;;;;;10.95;6.43;;;;;;;17.40;41.36;99810.84;5031632;28;20120;-88
2023/05/01 10:08:45;;;;;;;11.05;6.32;;;;;;;17.59;41.81;99841.09;5048736;28;20025;-88
2023/05/01 10:11:10;;;;;;;12.73;6.80;;;;;;;17.42;40.61;99844.94;5031988;28;20116;-88
2023/05/01 10:13:36;;;;;;;10.35;5.70;;;;;;;17.47;41.26;99853.34;5032195;28;20111;-87
2023/05/01 10:16:06;;;;;;;10.50;6.10;;;;;;;17.37;40.83;99849.72;5031906;28;20079;-93
2023/05/01 10:18:58;;;;;;;10.43;5.97;;;;;;;17.51;41.18;99840.81;5035661;28;20094;-94
2023/05/01 10:21:43;;;;;;;;;;;;;;;17.53;41.86;99847.66;4974349;28;20058;-92
2023/05/01 10:24:09;;;;;;;13.23;6.35;;;;;;;17.60;40.72;99817.28;4975366;28;20473;-92
2023/05/01 10:26:36;;;;;;;8.82;5.20;;;;;;;17.90;40.13;99831.81;4976804;28;20079;-89
2023/05/01 10:29:03;;;;;;;9.95;8.18;;;;;;;17.84;40.65;99803.28;4991564;28;20073;-88
2023/05/01 10:31:31;;;;;;;11.52;5.50;;;;;;;17.56;41.03;99822.88;4975487;28;20038;-88
2023/05/01 10:33:57;;;;;;;9.48;5.13;;;;;;;17.55;41.36;99824.66;4975382;28;20029;-88
2023/05/01 10:36:38;;;;;;;10.43;4.72;;;;;;;17.08;39.17;99784.19;4975233;28;20565;-88
2023/05/01 10:39:03;;;;;;;7.57;5.03;;;;;;;17.25;40.55;99814.56;4973180;28;20034;-88
2023/05/01 10:41:56;;;;;;;9.68;5.35;;;;;;;17.36;40.35;99798.84;4991753;28;20121;-88
2023/05/01 10:44:23;;;;;;;11.00;6.32;;;;;;;17.35;41.67;99772.63;4973968;28;20029;-84
2023/05/01 10:46:48;;;;;;;9.88;6.40;;;;;;;17.58;40.86;99799.91;4991853;28;20050;-83
2023/05/01 10:49:13;;;;;;;11.90;8.23;;;;;;;17.56;41.08;99810.53;4992673;28;20038;-87
2023/05/01 10:52:00;;;;;;;7.32;4.45;;;;;;;17.49;38.42;99808.47;4976609;28;20034;-83
2023/05/01 10:54:32;;;;;;;7.43;5.57;;;;;;;17.31;39.14;99805.38;4993009;28;20050;-83
2023/05/01 10:57:01;;;;;;;8.35;7.53;;;;;;;17.46;38.87;99788.47;4993064;28;20038;-83
2023/05/01 10:59:47;;;;;;;8.57;5.60;;;;;;;17.73;39.29;99797.94;4993220;28;20035;-85
2023/05/01 11:02:22;;;;;;;7.45;4.57;;;;;;;17.72;40.36;99786.56;4992947;28;20081;-85
2023/05/01 11:04:50;;;;;;;8.73;4.72;;;;;;;17.73;39.54;99777.69;4994427;28;20030;-85
2023/05/01 11:07:17;;;;;;;7.07;5.57;;;;;;;17.85;39.07;99771.53;4993342;28;20042;-85
2023/05/01 11:09:43;;;;;;;7.70;5.15;;;;;;;17.79;39.05;99785.19;4992986;28;20065;-85
2023/05/01 11:12:10;;;;;;;12.05;4.60;;;;;;;17.53;38.70;99731.78;5021766;28;20091;-84
2023/05/01 11:14:51;;;;;;;8.98;6.65;;;;;;;17.91;39.03;99771.09;5034647;28;20033;-84
2023/05/01 11:17:41;;;;;;;5.22;4.38;;;;;;;18.01;38.65;99773.03;5033975;28;20033;-86
2023/05/01 11:20:07;;;;;;;6.93;5.22;;;;;;;17.93;38.73;99750.72;5032532;28;20384;-85
2023/05/01 11:22:34;;;;;;;10.35;4.60;;;;;;;17.88;38.29;99736.25;5053222;28;20041;-90
2023/05/01 11:25:03;;;;;;;6.50;4.70;;;;;;;17.82;39.04;99707.69;5054248;28;20142;-90
2023/05/01 11:27:29;;;;;;;10.48;7.25;;;;;;;18.19;39.07;99740.00;5051886;28;20045;-85